sensor_id;sensor_type;location;lat;lon;timestamp;P1;durP1;ratioP1;P2;durP2;ratioP2
26082;SDS011;13848;49.018;12.078;2023-07-29T00:02:14;4.35;;;2.47;;
26082;SDS011;13848;49.018;12.078;2023-07-29T00:04:41;6.28;;;2.83;;
26082;SDS011;13848;49.018;12.078;2023-07-29T00:07:07;4.57;;;3.10;;
26082;SDS011;13848;49.018;12.078;2023-07-29T00:09:33;4.10;;;2.85;;
26082;SDS011;13848;49.018;12.078;2023-07-29T00:11:59;7.68;;;3.78;;
26082;SDS011;13848;49.018;12.078;2023-07-29T00:14:25;5.10;;;3.75;;
26082;SDS011;13848;49.018;12.078;2023-07-29T00:16:51;4.72;;;4.00;;
26082;SDS011;13848;49.018;12.078;2023-07-29T00:19:16;4.60;;;2.80;;
26082;SDS011;13848;49.018;12.078;2023-07-29T00:21:44;5.28;;;2.97;;
26082;SDS011;13848;49.018;12.078;2023-07-29T00:24:10;5.10;;;3.67;;
26082;SDS011;13848;49.018;12.078;2023-07-29T00:26:36;3.88;;;2.78;;
26082;SDS011;13848;49.018;12.078;2023-07-29T00:29:01;4.93;;;3.83;;
26082;SDS011;13848;49.018;12.078;2023-07-29T00:31:27;3.40;;;2.78;;
26082;SDS011;13848;49.018;12.078;2023-07-29T00:33:53;3.85;;;2.55;;
26082;SDS011;13848;49.018;12.078;2023-07-29T00:36:19;3.60;;;3.00;;
26082;SDS011;13848;49.018;12.078;2023-07-29T00:38:46;7.72;;;4.97;;
26082;SDS011;13848;49.018;12.078;2023-07-29T00:41:12;4.57;;;3.33;;
26082;SDS011;13848;49.018;12.078;2023-07-29T00:43:39;6.15;;;4.20;;
26082;SDS011;13848;49.018;12.078;2023-07-29T00:46:05;8.18;;;5.28;;
26082;SDS011;13848;49.018;12.078;2023-07-29T00:48:34;8.02;;;5.10;;
26082;SDS011;13848;49.018;12.078;2023-07-29T00:51:00;6.45;;;4.50;;
26082;SDS011;13848;49.018;12.078;2023-07-29T00:53:26;10.25;;;4.28;;
26082;SDS011;13848;49.018;12.078;2023-07-29T00:55:53;5.43;;;3.50;;
26082;SDS011;13848;49.018;12.078;2023-07-29T00:58:19;4.78;;;3.30;;
26082;SDS011;13848;49.018;12.078;2023-07-29T01:00:45;3.55;;;3.20;;
26082;SDS011;13848;49.018;12.078;2023-07-29T01:03:11;7.53;;;3.80;;
26082;SDS011;13848;49.018;12.078;2023-07-29T01:05:40;5.68;;;4.25;;
26082;SDS011;13848;49.018;12.078;2023-07-29T01:08:17;5.18;;;3.80;;
26082;SDS011;13848;49.018;12.078;2023-07-29T01:10:54;6.15;;;3.20;;
26082;SDS011;13848;49.018;12.078;2023-07-29T01:13:28;4.10;;;3.58;;
26082;SDS011;13848;49.018;12.078;2023-07-29T01:16:04;4.15;;;3.42;;
26082;SDS011;13848;49.018;12.078;2023-07-29T01:18:36;4.15;;;3.40;;
26082;SDS011;13848;49.018;12.078;2023-07-29T01:21:06;4.40;;;3.50;;
26082;SDS011;13848;49.018;12.078;2023-07-29T01:23:35;4.68;;;3.30;;
26082;SDS011;13848;49.018;12.078;2023-07-29T01:26:01;4.43;;;3.38;;
26082;SDS011;13848;49.018;12.078;2023-07-29T01:28:28;4.50;;;3.28;;
26082;SDS011;13848;49.018;12.078;2023-07-29T01:30:56;6.07;;;4.22;;
26082;SDS011;13848;49.018;12.078;2023-07-29T01:33:27;4.85;;;3.58;;
26082;SDS011;13848;49.018;12.078;2023-07-29T01:36:01;4.30;;;3.42;;
26082;SDS011;13848;49.018;12.078;2023-07-29T01:38:29;4.97;;;3.78;;
26082;SDS011;13848;49.018;12.078;2023-07-29T01:40:59;5.50;;;3.65;;
26082;SDS011;13848;49.018;12.078;2023-07-29T01:43:26;6.25;;;3.80;;
26082;SDS011;13848;49.018;12.078;2023-07-29T01:45:52;5.55;;;3.60;;
26082;SDS011;13848;49.018;12.078;2023-07-29T01:48:18;4.13;;;3.30;;
26082;SDS011;13848;49.018;12.078;2023-07-29T01:50:44;4.15;;;3.40;;
26082;SDS011;13848;49.018;12.078;2023-07-29T01:53:10;5.43;;;4.00;;
26082;SDS011;13848;49.018;12.078;2023-07-29T01:55:36;4.07;;;3.58;;
26082;SDS011;13848;49.018;12.078;2023-07-29T01:58:03;4.55;;;3.58;;
26082;SDS011;13848;49.018;12.078;2023-07-29T02:00:29;5.93;;;4.03;;
26082;SDS011;13848;49.018;12.078;2023-07-29T02:02:55;5.18;;;4.40;;
26082;SDS011;13848;49.018;12.078;2023-07-29T02:05:21;5.68;;;4.30;;
26082;SDS011;13848;49.018;12.078;2023-07-29T02:07:47;7.32;;;5.47;;
26082;SDS011;13848;49.018;12.078;2023-07-29T02:10:13;6.55;;;5.80;;
26082;SDS011;13848;49.018;12.078;2023-07-29T02:12:39;8.07;;;6.60;;
26082;SDS011;13848;49.018;12.078;2023-07-29T02:15:07;8.38;;;6.03;;
26082;SDS011;13848;49.018;12.078;2023-07-29T02:17:33;6.93;;;5.70;;
26082;SDS011;13848;49.018;12.078;2023-07-29T02:19:59;11.15;;;6.40;;
26082;SDS011;13848;49.018;12.078;2023-07-29T02:22:25;7.55;;;5.97;;
26082;SDS011;13848;49.018;12.078;2023-07-29T02:24:51;7.68;;;6.32;;
26082;SDS011;13848;49.018;12.078;2023-07-29T02:27:17;7.25;;;6.15;;
26082;SDS011;13848;49.018;12.078;2023-07-29T02:29:43;7.03;;;5.65;;
26082;SDS011;13848;49.018;12.078;2023-07-29T02:32:10;6.50;;;5.80;;
26082;SDS011;13848;49.018;12.078;2023-07-29T02:34:36;6.38;;;5.20;;
26082;SDS011;13848;49.018;12.078;2023-07-29T02:37:02;9.38;;;5.80;;
26082;SDS011;13848;49.018;12.078;2023-07-29T02:39:28;7.38;;;4.85;;
26082;SDS011;13848;49.018;12.078;2023-07-29T02:41:55;5.80;;;5.20;;
26082;SDS011;13848;49.018;12.078;2023-07-29T02:44:21;6.13;;;4.97;;
26082;SDS011;13848;49.018;12.078;2023-07-29T02:46:47;5.95;;;4.88;;
26082;SDS011;13848;49.018;12.078;2023-07-29T02:49:14;5.60;;;4.93;;
26082;SDS011;13848;49.018;12.078;2023-07-29T02:51:40;5.47;;;4.78;;
26082;SDS011;13848;49.018;12.078;2023-07-29T02:54:06;9.93;;;4.93;;
26082;SDS011;13848;49.018;12.078;2023-07-29T02:56:32;5.68;;;5.10;;
26082;SDS011;13848;49.018;12.078;2023-07-29T02:58:58;6.32;;;5.28;;
26082;SDS011;13848;49.018;12.078;2023-07-29T03:01:24;6.35;;;5.45;;
26082;SDS011;13848;49.018;12.078;2023-07-29T03:03:50;8.23;;;5.70;;
26082;SDS011;13848;49.018;12.078;2023-07-29T03:06:18;6.78;;;5.30;;
26082;SDS011;13848;49.018;12.078;2023-07-29T03:08:44;7.65;;;5.53;;
26082;SDS011;13848;49.018;12.078;2023-07-29T03:11:10;6.97;;;4.82;;
26082;SDS011;13848;49.018;12.078;2023-07-29T03:13:37;6.53;;;5.75;;
26082;SDS011;13848;49.018;12.078;2023-07-29T03:16:06;6.55;;;5.25;;
26082;SDS011;13848;49.018;12.078;2023-07-29T03:18:33;9.80;;;5.35;;
26082;SDS011;13848;49.018;12.078;2023-07-29T03:20:59;6.55;;;5.35;;
26082;SDS011;13848;49.018;12.078;2023-07-29T03:23:27;7.65;;;5.03;;
26082;SDS011;13848;49.018;12.078;2023-07-29T03:25:54;7.65;;;5.40;;
26082;SDS011;13848;49.018;12.078;2023-07-29T03:28:20;6.18;;;5.05;;
26082;SDS011;13848;49.018;12.078;2023-07-29T03:30:46;6.45;;;5.70;;
26082;SDS011;13848;49.018;12.078;2023-07-29T03:33:12;7.68;;;6.88;;
26082;SDS011;13848;49.018;12.078;2023-07-29T03:35:38;7.03;;;6.25;;
26082;SDS011;13848;49.018;12.078;2023-07-29T03:38:04;8.18;;;6.00;;
26082;SDS011;13848;49.018;12.078;2023-07-29T03:40:31;14.48;;;9.30;;
26082;SDS011;13848;49.018;12.078;2023-07-29T03:42:57;12.32;;;8.82;;
26082;SDS011;13848;49.018;12.078;2023-07-29T03:45:23;10.55;;;7.65;;
26082;SDS011;13848;49.018;12.078;2023-07-29T03:47:49;8.10;;;6.28;;
26082;SDS011;13848;49.018;12.078;2023-07-29T03:50:14;12.25;;;7.53;;
26082;SDS011;13848;49.018;12.078;2023-07-29T03:52:40;12.27;;;6.95;;
26082;SDS011;13848;49.018;12.078;2023-07-29T03:55:07;10.00;;;7.03;;
26082;SDS011;13848;49.018;12.078;2023-07-29T03:57:35;8.02;;;6.90;;
26082;SDS011;13848;49.018;12.078;2023-07-29T04:00:01;11.75;;;7.38;;
26082;SDS011;13848;49.018;12.078;2023-07-29T04:02:27;11.35;;;6.95;;
26082;SDS011;13848;49.018;12.078;2023-07-29T04:04:52;11.02;;;7.18;;
26082;SDS011;13848;49.018;12.078;2023-07-29T04:07:18;8.75;;;6.75;;
26082;SDS011;13848;49.018;12.078;2023-07-29T04:09:44;10.57;;;6.40;;
26082;SDS011;13848;49.018;12.078;2023-07-29T04:12:10;9.75;;;7.28;;
26082;SDS011;13848;49.018;12.078;2023-07-29T04:14:38;9.07;;;6.63;;
26082;SDS011;13848;49.018;12.078;2023-07-29T04:17:04;8.43;;;6.82;;
26082;SDS011;13848;49.018;12.078;2023-07-29T04:19:30;9.57;;;7.03;;
26082;SDS011;13848;49.018;12.078;2023-07-29T04:21:56;10.23;;;7.45;;
26082;SDS011;13848;49.018;12.078;2023-07-29T04:24:22;8.02;;;6.90;;
26082;SDS011;13848;49.018;12.078;2023-07-29T04:26:48;8.55;;;6.68;;
26082;SDS011;13848;49.018;12.078;2023-07-29T04:29:14;9.10;;;7.20;;
26082;SDS011;13848;49.018;12.078;2023-07-29T04:31:41;10.98;;;7.72;;
26082;SDS011;13848;49.018;12.078;2023-07-29T04:34:07;11.82;;;9.20;;
26082;SDS011;13848;49.018;12.078;2023-07-29T04:36:33;14.77;;;10.00;;
26082;SDS011;13848;49.018;12.078;2023-07-29T04:38:59;11.80;;;10.02;;
26082;SDS011;13848;49.018;12.078;2023-07-29T04:41:25;11.52;;;9.38;;
26082;SDS011;13848;49.018;12.078;2023-07-29T04:43:50;12.40;;;9.63;;
26082;SDS011;13848;49.018;12.078;2023-07-29T04:46:16;12.45;;;9.65;;
26082;SDS011;13848;49.018;12.078;2023-07-29T04:48:44;12.05;;;10.05;;
26082;SDS011;13848;49.018;12.078;2023-07-29T04:51:09;17.75;;;10.32;;
26082;SDS011;13848;49.018;12.078;2023-07-29T04:53:35;11.20;;;9.93;;
26082;SDS011;13848;49.018;12.078;2023-07-29T04:56:01;11.27;;;9.60;;
26082;SDS011;13848;49.018;12.078;2023-07-29T04:58:27;13.77;;;11.15;;
26082;SDS011;13848;49.018;12.078;2023-07-29T05:00:53;13.15;;;10.85;;
26082;SDS011;13848;49.018;12.078;2023-07-29T05:03:19;13.85;;;10.55;;
26082;SDS011;13848;49.018;12.078;2023-07-29T05:05:46;12.73;;;10.45;;
26082;SDS011;13848;49.018;12.078;2023-07-29T05:08:12;14.10;;;10.30;;
26082;SDS011;13848;49.018;12.078;2023-07-29T05:10:38;13.45;;;10.13;;
26082;SDS011;13848;49.018;12.078;2023-07-29T05:13:04;12.00;;;9.73;;
26082;SDS011;13848;49.018;12.078;2023-07-29T05:15:30;11.77;;;9.70;;
26082;SDS011;13848;49.018;12.078;2023-07-29T05:17:56;17.02;;;9.93;;
26082;SDS011;13848;49.018;12.078;2023-07-29T05:20:22;14.85;;;10.45;;
26082;SDS011;13848;49.018;12.078;2023-07-29T05:22:49;13.38;;;10.25;;
26082;SDS011;13848;49.018;12.078;2023-07-29T05:25:15;13.77;;;11.05;;
26082;SDS011;13848;49.018;12.078;2023-07-29T05:27:41;12.85;;;10.13;;
26082;SDS011;13848;49.018;12.078;2023-07-29T05:30:08;11.02;;;8.85;;
26082;SDS011;13848;49.018;12.078;2023-07-29T05:32:34;10.65;;;7.95;;
26082;SDS011;13848;49.018;12.078;2023-07-29T05:34:59;9.90;;;7.85;;
26082;SDS011;13848;49.018;12.078;2023-07-29T05:37:25;9.98;;;7.45;;
26082;SDS011;13848;49.018;12.078;2023-07-29T05:39:53;10.15;;;7.72;;
26082;SDS011;13848;49.018;12.078;2023-07-29T05:42:18;10.63;;;7.60;;
26082;SDS011;13848;49.018;12.078;2023-07-29T05:44:44;7.75;;;6.60;;
26082;SDS011;13848;49.018;12.078;2023-07-29T05:47:10;9.07;;;6.38;;
26082;SDS011;13848;49.018;12.078;2023-07-29T05:49:36;7.43;;;6.00;;
26082;SDS011;13848;49.018;12.078;2023-07-29T05:52:02;6.85;;;5.90;;
26082;SDS011;13848;49.018;12.078;2023-07-29T05:54:28;6.10;;;5.20;;
26082;SDS011;13848;49.018;12.078;2023-07-29T05:56:56;7.57;;;4.90;;
26082;SDS011;13848;49.018;12.078;2023-07-29T05:59:22;7.25;;;5.22;;
26082;SDS011;13848;49.018;12.078;2023-07-29T06:01:47;5.30;;;4.43;;
26082;SDS011;13848;49.018;12.078;2023-07-29T06:04:13;10.07;;;4.93;;
26082;SDS011;13848;49.018;12.078;2023-07-29T06:06:39;6.68;;;4.28;;
26082;SDS011;13848;49.018;12.078;2023-07-29T06:09:05;5.38;;;4.60;;
26082;SDS011;13848;49.018;12.078;2023-07-29T06:11:31;5.10;;;4.60;;
26082;SDS011;13848;49.018;12.078;2023-07-29T06:13:58;5.25;;;4.05;;
26082;SDS011;13848;49.018;12.078;2023-07-29T06:16:24;7.28;;;4.13;;
26082;SDS011;13848;49.018;12.078;2023-07-29T06:18:50;5.60;;;4.53;;
26082;SDS011;13848;49.018;12.078;2023-07-29T06:21:16;7.45;;;4.63;;
26082;SDS011;13848;49.018;12.078;2023-07-29T06:23:42;5.55;;;4.43;;
26082;SDS011;13848;49.018;12.078;2023-07-29T06:26:08;5.28;;;4.20;;
26082;SDS011;13848;49.018;12.078;2023-07-29T06:28:34;4.63;;;4.10;;
26082;SDS011;13848;49.018;12.078;2023-07-29T06:31:01;5.88;;;4.28;;
26082;SDS011;13848;49.018;12.078;2023-07-29T06:33:27;4.45;;;4.05;;
26082;SDS011;13848;49.018;12.078;2023-07-29T06:35:53;4.75;;;3.90;;
26082;SDS011;13848;49.018;12.078;2023-07-29T06:38:19;4.30;;;3.70;;
26082;SDS011;13848;49.018;12.078;2023-07-29T06:40:45;4.35;;;3.42;;
26082;SDS011;13848;49.018;12.078;2023-07-29T06:43:11;4.60;;;3.38;;
26082;SDS011;13848;49.018;12.078;2023-07-29T06:45:36;5.60;;;3.35;;
26082;SDS011;13848;49.018;12.078;2023-07-29T06:48:04;6.03;;;3.88;;
26082;SDS011;13848;49.018;12.078;2023-07-29T06:50:30;5.95;;;3.35;;
26082;SDS011;13848;49.018;12.078;2023-07-29T06:52:56;3.90;;;2.90;;
26082;SDS011;13848;49.018;12.078;2023-07-29T06:55:22;4.15;;;3.17;;
26082;SDS011;13848;49.018;12.078;2023-07-29T06:57:48;4.75;;;3.33;;
26082;SDS011;13848;49.018;12.078;2023-07-29T07:00:14;5.22;;;3.15;;
26082;SDS011;13848;49.018;12.078;2023-07-29T07:02:40;4.53;;;3.17;;
26082;SDS011;13848;49.018;12.078;2023-07-29T07:05:07;3.28;;;2.97;;
26082;SDS011;13848;49.018;12.078;2023-07-29T07:07:33;7.28;;;2.85;;
26082;SDS011;13848;49.018;12.078;2023-07-29T07:09:59;4.90;;;3.05;;
26082;SDS011;13848;49.018;12.078;2023-07-29T07:12:25;2.75;;;2.55;;
26082;SDS011;13848;49.018;12.078;2023-07-29T07:14:51;3.88;;;3.03;;
26082;SDS011;13848;49.018;12.078;2023-07-29T07:17:17;6.07;;;2.65;;
26082;SDS011;13848;49.018;12.078;2023-07-29T07:19:43;3.33;;;2.90;;
26082;SDS011;13848;49.018;12.078;2023-07-29T07:22:11;3.92;;;2.97;;
26082;SDS011;13848;49.018;12.078;2023-07-29T07:24:36;3.47;;;2.90;;
26082;SDS011;13848;49.018;12.078;2023-07-29T07:27:02;4.20;;;2.95;;
26082;SDS011;13848;49.018;12.078;2023-07-29T07:29:29;7.47;;;3.03;;
26082;SDS011;13848;49.018;12.078;2023-07-29T07:31:55;3.75;;;2.83;;
26082;SDS011;13848;49.018;12.078;2023-07-29T07:34:22;3.67;;;3.03;;
26082;SDS011;13848;49.018;12.078;2023-07-29T07:36:48;3.25;;;2.95;;
26082;SDS011;13848;49.018;12.078;2023-07-29T07:39:15;5.15;;;3.05;;
26082;SDS011;13848;49.018;12.078;2023-07-29T07:41:41;3.42;;;2.80;;
26082;SDS011;13848;49.018;12.078;2023-07-29T07:44:07;3.80;;;3.10;;
26082;SDS011;13848;49.018;12.078;2023-07-29T07:46:33;3.55;;;3.13;;
26082;SDS011;13848;49.018;12.078;2023-07-29T07:48:59;5.18;;;3.10;;
26082;SDS011;13848;49.018;12.078;2023-07-29T07:51:25;4.90;;;3.22;;
26082;SDS011;13848;49.018;12.078;2023-07-29T07:53:51;8.05;;;3.42;;
26082;SDS011;13848;49.018;12.078;2023-07-29T07:56:18;3.83;;;3.00;;
26082;SDS011;13848;49.018;12.078;2023-07-29T07:58:44;4.85;;;3.13;;
26082;SDS011;13848;49.018;12.078;2023-07-29T08:01:10;4.40;;;3.08;;
26082;SDS011;13848;49.018;12.078;2023-07-29T08:03:36;4.80;;;3.20;;
26082;SDS011;13848;49.018;12.078;2023-07-29T08:06:02;3.67;;;2.80;;
26082;SDS011;13848;49.018;12.078;2023-07-29T08:08:28;3.42;;;2.55;;
26082;SDS011;13848;49.018;12.078;2023-07-29T08:10:54;3.47;;;2.45;;
26082;SDS011;13848;49.018;12.078;2023-07-29T08:13:24;5.00;;;3.60;;
26082;SDS011;13848;49.018;12.078;2023-07-29T08:15:50;7.45;;;3.70;;
26082;SDS011;13848;49.018;12.078;2023-07-29T08:18:17;4.10;;;2.80;;
26082;SDS011;13848;49.018;12.078;2023-07-29T08:20:51;5.82;;;3.13;;
26082;SDS011;13848;49.018;12.078;2023-07-29T08:23:17;4.28;;;3.20;;
26082;SDS011;13848;49.018;12.078;2023-07-29T08:25:43;5.95;;;3.10;;
26082;SDS011;13848;49.018;12.078;2023-07-29T08:28:09;7.63;;;3.40;;
26082;SDS011;13848;49.018;12.078;2023-07-29T08:30:36;9.57;;;3.83;;
26082;SDS011;13848;49.018;12.078;2023-07-29T08:33:02;5.55;;;3.88;;
26082;SDS011;13848;49.018;12.078;2023-07-29T08:35:28;4.43;;;2.75;;
26082;SDS011;13848;49.018;12.078;2023-07-29T08:37:54;6.10;;;3.15;;
26082;SDS011;13848;49.018;12.078;2023-07-29T08:40:23;3.92;;;2.80;;
26082;SDS011;13848;49.018;12.078;2023-07-29T08:42:53;4.13;;;3.00;;
26082;SDS011;13848;49.018;12.078;2023-07-29T08:45:21;4.28;;;2.97;;
26082;SDS011;13848;49.018;12.078;2023-07-29T08:47:48;4.00;;;2.70;;
26082;SDS011;13848;49.018;12.078;2023-07-29T08:50:20;4.00;;;2.72;;
26082;SDS011;13848;49.018;12.078;2023-07-29T08:52:46;6.50;;;4.22;;
26082;SDS011;13848;49.018;12.078;2023-07-29T08:55:14;3.75;;;2.60;;
26082;SDS011;13848;49.018;12.078;2023-07-29T08:57:40;7.95;;;2.70;;
26082;SDS011;13848;49.018;12.078;2023-07-29T09:00:07;8.07;;;4.30;;
26082;SDS011;13848;49.018;12.078;2023-07-29T09:02:34;4.65;;;2.80;;
26082;SDS011;13848;49.018;12.078;2023-07-29T09:05:02;4.90;;;2.80;;
26082;SDS011;13848;49.018;12.078;2023-07-29T09:07:28;4.60;;;2.70;;
26082;SDS011;13848;49.018;12.078;2023-07-29T09:09:54;14.15;;;6.18;;
26082;SDS011;13848;49.018;12.078;2023-07-29T09:12:20;13.00;;;8.02;;
26082;SDS011;13848;49.018;12.078;2023-07-29T09:14:46;8.27;;;4.93;;
26082;SDS011;13848;49.018;12.078;2023-07-29T09:17:12;10.98;;;7.35;;
26082;SDS011;13848;49.018;12.078;2023-07-29T09:19:39;6.53;;;4.50;;
26082;SDS011;13848;49.018;12.078;2023-07-29T09:22:08;4.75;;;2.90;;
26082;SDS011;13848;49.018;12.078;2023-07-29T09:24:43;6.65;;;3.20;;
26082;SDS011;13848;49.018;12.078;2023-07-29T09:27:10;3.83;;;2.70;;
26082;SDS011;13848;49.018;12.078;2023-07-29T09:29:48;3.95;;;2.92;;
26082;SDS011;13848;49.018;12.078;2023-07-29T09:32:17;9.43;;;4.03;;
26082;SDS011;13848;49.018;12.078;2023-07-29T09:34:44;8.60;;;3.42;;
26082;SDS011;13848;49.018;12.078;2023-07-29T09:37:13;4.72;;;3.38;;
26082;SDS011;13848;49.018;12.078;2023-07-29T09:39:42;8.07;;;4.10;;
26082;SDS011;13848;49.018;12.078;2023-07-29T09:42:11;3.95;;;3.00;;
26082;SDS011;13848;49.018;12.078;2023-07-29T09:44:37;2.97;;;2.30;;
26082;SDS011;13848;49.018;12.078;2023-07-29T09:47:03;6.60;;;3.20;;
26082;SDS011;13848;49.018;12.078;2023-07-29T09:49:29;3.85;;;3.10;;
26082;SDS011;13848;49.018;12.078;2023-07-29T09:52:00;3.47;;;2.50;;
26082;SDS011;13848;49.018;12.078;2023-07-29T09:54:27;3.55;;;2.20;;
26082;SDS011;13848;49.018;12.078;2023-07-29T09:56:55;2.08;;;1.90;;
26082;SDS011;13848;49.018;12.078;2023-07-29T09:59:20;3.30;;;2.20;;
26082;SDS011;13848;49.018;12.078;2023-07-29T10:01:49;2.00;;;1.80;;
26082;SDS011;13848;49.018;12.078;2023-07-29T10:04:16;2.92;;;2.10;;
26082;SDS011;13848;49.018;12.078;2023-07-29T10:06:43;3.20;;;1.98;;
26082;SDS011;13848;49.018;12.078;2023-07-29T10:09:10;2.10;;;1.90;;
26082;SDS011;13848;49.018;12.078;2023-07-29T10:11:38;3.22;;;2.40;;
26082;SDS011;13848;49.018;12.078;2023-07-29T10:14:06;3.70;;;2.25;;
26082;SDS011;13848;49.018;12.078;2023-07-29T10:16:32;6.00;;;2.55;;
26082;SDS011;13848;49.018;12.078;2023-07-29T10:19:00;3.33;;;2.20;;
26082;SDS011;13848;49.018;12.078;2023-07-29T10:21:26;3.90;;;2.25;;
26082;SDS011;13848;49.018;12.078;2023-07-29T10:23:53;3.53;;;2.40;;
26082;SDS011;13848;49.018;12.078;2023-07-29T10:26:24;4.83;;;2.37;;
26082;SDS011;13848;49.018;12.078;2023-07-29T10:28:54;3.30;;;2.45;;
26082;SDS011;13848;49.018;12.078;2023-07-29T10:31:24;3.75;;;2.50;;
26082;SDS011;13848;49.018;12.078;2023-07-29T10:33:50;4.43;;;2.97;;
26082;SDS011;13848;49.018;12.078;2023-07-29T10:36:17;3.58;;;2.40;;
26082;SDS011;13848;49.018;12.078;2023-07-29T10:38:43;6.90;;;2.70;;
26082;SDS011;13848;49.018;12.078;2023-07-29T10:41:09;5.72;;;2.92;;
26082;SDS011;13848;49.018;12.078;2023-07-29T10:43:35;5.25;;;2.72;;
26082;SDS011;13848;49.018;12.078;2023-07-29T10:46:15;3.38;;;2.72;;
26082;SDS011;13848;49.018;12.078;2023-07-29T10:48:42;3.58;;;2.92;;
26082;SDS011;13848;49.018;12.078;2023-07-29T10:51:22;3.25;;;2.65;;
26082;SDS011;13848;49.018;12.078;2023-07-29T10:53:51;4.72;;;2.97;;
26082;SDS011;13848;49.018;12.078;2023-07-29T10:56:24;4.40;;;3.03;;
26082;SDS011;13848;49.018;12.078;2023-07-29T10:58:51;6.25;;;3.80;;
26082;SDS011;13848;49.018;12.078;2023-07-29T11:01:27;4.10;;;3.28;;
26082;SDS011;13848;49.018;12.078;2023-07-29T11:09:51;3.83;;;2.80;;
26082;SDS011;13848;49.018;12.078;2023-07-29T11:15:18;2.88;;;2.28;;
26082;SDS011;13848;49.018;12.078;2023-07-29T11:17:47;2.75;;;2.10;;
26082;SDS011;13848;49.018;12.078;2023-07-29T11:20:14;2.85;;;2.47;;
26082;SDS011;13848;49.018;12.078;2023-07-29T11:22:41;3.97;;;2.40;;
26082;SDS011;13848;49.018;12.078;2023-07-29T11:25:08;3.83;;;2.13;;
26082;SDS011;13848;49.018;12.078;2023-07-29T11:27:35;3.17;;;2.40;;
26082;SDS011;13848;49.018;12.078;2023-07-29T11:30:02;3.47;;;2.50;;
26082;SDS011;13848;49.018;12.078;2023-07-29T11:32:30;6.38;;;3.10;;
26082;SDS011;13848;49.018;12.078;2023-07-29T11:34:59;3.80;;;2.65;;
26082;SDS011;13848;49.018;12.078;2023-07-29T11:37:27;3.47;;;2.83;;
26082;SDS011;13848;49.018;12.078;2023-07-29T11:39:53;2.40;;;2.20;;
26082;SDS011;13848;49.018;12.078;2023-07-29T11:42:18;4.40;;;3.30;;
26082;SDS011;13848;49.018;12.078;2023-07-29T11:44:44;2.97;;;2.17;;
26082;SDS011;13848;49.018;12.078;2023-07-29T11:47:11;2.75;;;2.55;;
26082;SDS011;13848;49.018;12.078;2023-07-29T11:49:38;3.35;;;2.60;;
26082;SDS011;13848;49.018;12.078;2023-07-29T11:52:07;4.53;;;2.60;;
26082;SDS011;13848;49.018;12.078;2023-07-29T11:54:34;3.05;;;2.20;;
26082;SDS011;13848;49.018;12.078;2023-07-29T11:57:00;2.83;;;1.80;;
26082;SDS011;13848;49.018;12.078;2023-07-29T11:59:27;2.67;;;1.77;;
26082;SDS011;13848;49.018;12.078;2023-07-29T12:01:53;4.13;;;1.83;;
26082;SDS011;13848;49.018;12.078;2023-07-29T12:04:19;2.63;;;2.10;;
26082;SDS011;13848;49.018;12.078;2023-07-29T12:06:45;1.80;;;1.70;;
26082;SDS011;13848;49.018;12.078;2023-07-29T12:09:13;2.60;;;2.00;;
26082;SDS011;13848;49.018;12.078;2023-07-29T12:11:39;5.38;;;2.20;;
26082;SDS011;13848;49.018;12.078;2023-07-29T12:14:07;4.43;;;1.60;;
26082;SDS011;13848;49.018;12.078;2023-07-29T12:16:39;3.38;;;1.60;;
26082;SDS011;13848;49.018;12.078;2023-07-29T12:19:06;1.63;;;1.52;;
26082;SDS011;13848;49.018;12.078;2023-07-29T12:21:32;1.92;;;1.58;;
26082;SDS011;13848;49.018;12.078;2023-07-29T12:23:58;2.05;;;1.52;;
26082;SDS011;13848;49.018;12.078;2023-07-29T12:26:28;2.75;;;2.25;;
26082;SDS011;13848;49.018;12.078;2023-07-29T12:28:54;3.05;;;1.92;;
26082;SDS011;13848;49.018;12.078;2023-07-29T12:31:20;2.42;;;1.80;;
26082;SDS011;13848;49.018;12.078;2023-07-29T12:33:46;2.05;;;1.35;;
26082;SDS011;13848;49.018;12.078;2023-07-29T12:36:12;1.60;;;1.50;;
26082;SDS011;13848;49.018;12.078;2023-07-29T12:38:38;1.67;;;1.35;;
26082;SDS011;13848;49.018;12.078;2023-07-29T12:41:04;1.55;;;1.40;;
26082;SDS011;13848;49.018;12.078;2023-07-29T12:43:31;1.65;;;1.50;;
26082;SDS011;13848;49.018;12.078;2023-07-29T12:45:57;1.90;;;1.50;;
26082;SDS011;13848;49.018;12.078;2023-07-29T12:48:23;2.33;;;1.38;;
26082;SDS011;13848;49.018;12.078;2023-07-29T12:50:48;1.38;;;1.13;;
26082;SDS011;13848;49.018;12.078;2023-07-29T12:53:14;2.08;;;1.40;;
26082;SDS011;13848;49.018;12.078;2023-07-29T12:55:40;1.35;;;1.15;;
26082;SDS011;13848;49.018;12.078;2023-07-29T12:58:06;1.67;;;1.10;;
26082;SDS011;13848;49.018;12.078;2023-07-29T13:00:33;2.40;;;1.60;;
26082;SDS011;13848;49.018;12.078;2023-07-29T13:02:59;1.40;;;1.30;;
26082;SDS011;13848;49.018;12.078;2023-07-29T13:05:25;3.17;;;1.40;;
26082;SDS011;13848;49.018;12.078;2023-07-29T13:07:51;1.98;;;1.42;;
26082;SDS011;13848;49.018;12.078;2023-07-29T13:10:17;1.55;;;1.45;;
26082;SDS011;13848;49.018;12.078;2023-07-29T13:12:43;2.42;;;1.42;;
26082;SDS011;13848;49.018;12.078;2023-07-29T13:15:10;2.05;;;1.50;;
26082;SDS011;13848;49.018;12.078;2023-07-29T13:17:37;3.42;;;1.50;;
26082;SDS011;13848;49.018;12.078;2023-07-29T13:20:03;1.40;;;1.30;;
26082;SDS011;13848;49.018;12.078;2023-07-29T13:22:30;2.03;;;1.63;;
26082;SDS011;13848;49.018;12.078;2023-07-29T13:24:56;2.35;;;1.50;;
26082;SDS011;13848;49.018;12.078;2023-07-29T13:27:22;1.42;;;1.30;;
26082;SDS011;13848;49.018;12.078;2023-07-29T13:29:48;1.73;;;1.20;;
26082;SDS011;13848;49.018;12.078;2023-07-29T13:32:14;2.08;;;1.55;;
26082;SDS011;13848;49.018;12.078;2023-07-29T13:34:41;1.35;;;1.25;;
26082;SDS011;13848;49.018;12.078;2023-07-29T13:37:07;1.55;;;1.33;;
26082;SDS011;13848;49.018;12.078;2023-07-29T13:39:33;2.72;;;1.48;;
26082;SDS011;13848;49.018;12.078;2023-07-29T13:41:59;1.95;;;1.40;;
26082;SDS011;13848;49.018;12.078;2023-07-29T13:44:25;2.15;;;1.40;;
26082;SDS011;13848;49.018;12.078;2023-07-29T13:46:50;1.55;;;1.30;;
26082;SDS011;13848;49.018;12.078;2023-07-29T13:49:16;3.95;;;1.45;;
26082;SDS011;13848;49.018;12.078;2023-07-29T13:51:44;1.30;;;1.20;;
26082;SDS011;13848;49.018;12.078;2023-07-29T13:54:09;2.20;;;1.30;;
26082;SDS011;13848;49.018;12.078;2023-07-29T13:56:35;2.75;;;1.50;;
26082;SDS011;13848;49.018;12.078;2023-07-29T13:59:01;2.50;;;1.70;;
26082;SDS011;13848;49.018;12.078;2023-07-29T14:01:27;1.88;;;1.60;;
26082;SDS011;13848;49.018;12.078;2023-07-29T14:03:53;1.67;;;1.40;;
26082;SDS011;13848;49.018;12.078;2023-07-29T14:06:19;1.52;;;1.30;;
26082;SDS011;13848;49.018;12.078;2023-07-29T14:08:46;2.03;;;1.30;;
26082;SDS011;13848;49.018;12.078;2023-07-29T14:11:12;1.10;;;1.00;;
26082;SDS011;13848;49.018;12.078;2023-07-29T14:13:38;1.55;;;1.45;;
26082;SDS011;13848;49.018;12.078;2023-07-29T14:16:04;1.67;;;1.10;;
26082;SDS011;13848;49.018;12.078;2023-07-29T14:18:30;1.15;;;1.05;;
26082;SDS011;13848;49.018;12.078;2023-07-29T14:20:56;1.73;;;1.55;;
26082;SDS011;13848;49.018;12.078;2023-07-29T14:23:22;1.70;;;1.35;;
26082;SDS011;13848;49.018;12.078;2023-07-29T14:25:49;1.88;;;1.20;;
26082;SDS011;13848;49.018;12.078;2023-07-29T14:28:15;1.45;;;1.20;;
26082;SDS011;13848;49.018;12.078;2023-07-29T14:30:41;2.15;;;1.52;;
26082;SDS011;13848;49.018;12.078;2023-07-29T14:33:07;1.30;;;1.10;;
26082;SDS011;13848;49.018;12.078;2023-07-29T14:35:33;1.02;;;0.90;;
26082;SDS011;13848;49.018;12.078;2023-07-29T14:37:59;1.58;;;1.30;;
26082;SDS011;13848;49.018;12.078;2023-07-29T14:40:25;2.10;;;1.38;;